sensor_id;sensor_type;location;lat;lon;timestamp;pressure;altitude;pressure_sealevel;temperature;humidity
12785;BME280;6456;42.680;23.260;2022-07-18T00:00:07;95314.44;;;20.24;56.31
12785;BME280;6456;42.680;23.260;2022-07-18T00:02:34;95303.69;;;20.19;56.53
12785;BME280;6456;42.680;23.260;2022-07-18T00:05:02;95353.38;;;20.47;54.08
12785;BME280;6456;42.680;23.260;2022-07-18T00:07:31;95358.72;;;20.47;54.73
12785;BME280;6456;42.680;23.260;2022-07-18T00:09:58;95358.38;;;20.33;52.35
12785;BME280;6456;42.680;23.260;2022-07-18T00:12:25;95298.69;;;19.96;50.37
12785;BME280;6456;42.680;23.260;2022-07-18T00:14:52;95333.03;;;20.14;50.75
12785;BME280;6456;42.680;23.260;2022-07-18T00:17:19;95334.28;;;20.07;52.82
12785;BME280;6456;42.680;23.260;2022-07-18T00:19:46;95359.09;;;20.24;55.00
12785;BME280;6456;42.680;23.260;2022-07-18T00:22:13;95358.28;;;20.23;55.24
12785;BME280;6456;42.680;23.260;2022-07-18T00:24:41;95288.34;;;19.73;55.09
12785;BME280;6456;42.680;23.260;2022-07-18T00:27:08;95369.38;;;20.15;54.34
12785;BME280;6456;42.680;23.260;2022-07-18T00:29:35;95351.63;;;20.04;53.65
12785;BME280;6456;42.680;23.260;2022-07-18T00:32:02;95274.72;;;19.48;54.12
12785;BME280;6456;42.680;23.260;2022-07-18T00:34:29;95347.50;;;19.92;53.77
12785;BME280;6456;42.680;23.260;2022-07-18T00:36:56;95326.38;;;19.85;54.18
12785;BME280;6456;42.680;23.260;2022-07-18T00:39:24;95335.47;;;19.89;53.29
12785;BME280;6456;42.680;23.260;2022-07-18T00:41:52;95355.56;;;19.97;53.08
12785;BME280;6456;42.680;23.260;2022-07-18T00:44:21;95327.06;;;19.75;53.13
12785;BME280;6456;42.680;23.260;2022-07-18T00:46:48;95335.91;;;19.76;50.94
12785;BME280;6456;42.680;23.260;2022-07-18T00:49:16;95291.78;;;19.47;52.63
12785;BME280;6456;42.680;23.260;2022-07-18T00:51:43;95301.91;;;19.45;52.43
12785;BME280;6456;42.680;23.260;2022-07-18T00:54:10;95340.09;;;19.72;52.31
12785;BME280;6456;42.680;23.260;2022-07-18T00:56:37;95323.69;;;19.58;52.18
12785;BME280;6456;42.680;23.260;2022-07-18T00:59:05;95276.00;;;19.18;51.28
12785;BME280;6456;42.680;23.260;2022-07-18T01:01:33;95317.44;;;19.48;51.81
12785;BME280;6456;42.680;23.260;2022-07-18T01:04:19;95282.13;;;19.19;52.61
12785;BME280;6456;42.680;23.260;2022-07-18T01:06:47;95275.88;;;19.08;50.46
12785;BME280;6456;42.680;23.260;2022-07-18T01:09:14;95358.63;;;19.57;50.71
12785;BME280;6456;42.680;23.260;2022-07-18T01:11:41;95347.06;;;19.46;51.94
12785;BME280;6456;42.680;23.260;2022-07-18T01:14:11;95354.81;;;19.48;50.41
12785;BME280;6456;42.680;23.260;2022-07-18T01:16:38;95357.41;;;19.43;49.95
12785;BME280;6456;42.680;23.260;2022-07-18T01:19:05;95359.59;;;19.46;48.47
12785;BME280;6456;42.680;23.260;2022-07-18T01:21:33;95353.94;;;19.42;51.01
12785;BME280;6456;42.680;23.260;2022-07-18T01:24:02;95268.88;;;18.81;49.18
12785;BME280;6456;42.680;23.260;2022-07-18T01:26:29;95342.97;;;19.22;50.90
12785;BME280;6456;42.680;23.260;2022-07-18T01:28:56;95325.75;;;19.08;50.56
12785;BME280;6456;42.680;23.260;2022-07-18T01:31:23;95307.16;;;18.91;48.64
12785;BME280;6456;42.680;23.260;2022-07-18T01:33:53;95354.47;;;19.23;49.01
12785;BME280;6456;42.680;23.260;2022-07-18T01:36:20;95304.63;;;18.85;47.12
12785;BME280;6456;42.680;23.260;2022-07-18T01:38:48;95296.50;;;18.75;47.50
12785;BME280;6456;42.680;23.260;2022-07-18T01:41:15;95307.25;;;18.80;46.62
12785;BME280;6456;42.680;23.260;2022-07-18T01:43:42;95354.84;;;19.09;47.98
12785;BME280;6456;42.680;23.260;2022-07-18T01:46:09;95300.97;;;18.69;47.14
12785;BME280;6456;42.680;23.260;2022-07-18T01:48:37;95369.47;;;19.07;50.21
12785;BME280;6456;42.680;23.260;2022-07-18T01:51:04;95328.56;;;19.01;50.40
12785;BME280;6456;42.680;23.260;2022-07-18T01:53:35;95346.81;;;19.09;49.54
12785;BME280;6456;42.680;23.260;2022-07-18T01:56:04;95312.47;;;18.91;48.97
12785;BME280;6456;42.680;23.260;2022-07-18T01:58:31;95268.66;;;18.66;50.77
12785;BME280;6456;42.680;23.260;2022-07-18T02:00:58;95261.34;;;18.56;46.89
12785;BME280;6456;42.680;23.260;2022-07-18T02:03:25;95336.66;;;19.06;47.75
12785;BME280;6456;42.680;23.260;2022-07-18T02:05:52;95349.44;;;19.04;50.42
12785;BME280;6456;42.680;23.260;2022-07-18T02:08:18;95346.28;;;19.07;50.22
12785;BME280;6456;42.680;23.260;2022-07-18T02:10:45;95340.75;;;18.92;48.32
12785;BME280;6456;42.680;23.260;2022-07-18T02:13:13;95334.84;;;18.90;49.64
12785;BME280;6456;42.680;23.260;2022-07-18T02:15:42;95292.81;;;18.59;49.06
12785;BME280;6456;42.680;23.260;2022-07-18T02:18:09;95350.91;;;18.95;50.08
12785;BME280;6456;42.680;23.260;2022-07-18T02:20:36;95325.28;;;18.73;49.30
12785;BME280;6456;42.680;23.260;2022-07-18T02:23:04;95353.53;;;18.90;49.10
12785;BME280;6456;42.680;23.260;2022-07-18T02:25:30;95349.66;;;18.81;50.32
12785;BME280;6456;42.680;23.260;2022-07-18T02:27:57;95346.06;;;18.71;51.79
12785;BME280;6456;42.680;23.260;2022-07-18T02:30:26;95358.97;;;18.79;52.23
12785;BME280;6456;42.680;23.260;2022-07-18T02:32:53;95346.28;;;18.69;50.78
12785;BME280;6456;42.680;23.260;2022-07-18T02:35:20;95354.41;;;18.79;50.23
12785;BME280;6456;42.680;23.260;2022-07-18T02:37:47;95351.06;;;18.67;49.16
12785;BME280;6456;42.680;23.260;2022-07-18T02:40:14;95356.38;;;18.67;47.67
12785;BME280;6456;42.680;23.260;2022-07-18T02:42:41;95320.53;;;18.25;46.40
12785;BME280;6456;42.680;23.260;2022-07-18T02:45:08;95366.16;;;18.45;45.14
12785;BME280;6456;42.680;23.260;2022-07-18T02:47:37;95280.56;;;17.91;45.93
12785;BME280;6456;42.680;23.260;2022-07-18T02:50:04;95363.06;;;18.36;47.51
12785;BME280;6456;42.680;23.260;2022-07-18T02:52:31;95361.56;;;18.40;48.39
12785;BME280;6456;42.680;23.260;2022-07-18T02:54:58;95378.22;;;18.47;49.40
12785;BME280;6456;42.680;23.260;2022-07-18T02:57:26;95355.81;;;18.32;49.11
12785;BME280;6456;42.680;23.260;2022-07-18T02:59:53;95374.25;;;18.50;49.35
12785;BME280;6456;42.680;23.260;2022-07-18T03:02:20;95296.78;;;18.07;49.33
12785;BME280;6456;42.680;23.260;2022-07-18T03:04:48;95288.34;;;17.93;49.11
12785;BME280;6456;42.680;23.260;2022-07-18T03:07:15;95381.91;;;18.46;47.69
12785;BME280;6456;42.680;23.260;2022-07-18T03:09:42;95354.22;;;18.31;49.80
12785;BME280;6456;42.680;23.260;2022-07-18T03:12:08;95308.00;;;17.92;50.03
12785;BME280;6456;42.680;23.260;2022-07-18T03:14:35;95379.47;;;18.45;49.92
12785;BME280;6456;42.680;23.260;2022-07-18T03:17:02;95367.59;;;18.36;48.80
12785;BME280;6456;42.680;23.260;2022-07-18T03:19:29;95379.88;;;18.37;49.41
12785;BME280;6456;42.680;23.260;2022-07-18T03:21:58;95388.50;;;18.44;48.94
12785;BME280;6456;42.680;23.260;2022-07-18T03:24:25;95383.59;;;18.36;47.47
12785;BME280;6456;42.680;23.260;2022-07-18T03:26:51;95395.78;;;18.32;48.88
12785;BME280;6456;42.680;23.260;2022-07-18T03:29:18;95389.31;;;18.28;48.10
12785;BME280;6456;42.680;23.260;2022-07-18T03:31:45;95388.25;;;18.29;45.73
12785;BME280;6456;42.680;23.260;2022-07-18T03:34:12;95386.88;;;18.26;46.99
12785;BME280;6456;42.680;23.260;2022-07-18T03:36:39;95309.28;;;17.73;47.46
12785;BME280;6456;42.680;23.260;2022-07-18T03:39:09;95271.97;;;17.56;46.92
12785;BME280;6456;42.680;23.260;2022-07-18T03:41:37;95369.84;;;18.27;46.41
12785;BME280;6456;42.680;23.260;2022-07-18T03:44:05;95364.69;;;18.21;47.74
12785;BME280;6456;42.680;23.260;2022-07-18T03:46:33;95328.59;;;17.97;48.35
12785;BME280;6456;42.680;23.260;2022-07-18T03:48:59;95384.16;;;18.38;47.98
12785;BME280;6456;42.680;23.260;2022-07-18T03:51:27;95373.16;;;18.34;49.44
12785;BME280;6456;42.680;23.260;2022-07-18T03:53:54;95283.56;;;17.78;50.67
12785;BME280;6456;42.680;23.260;2022-07-18T03:56:22;95373.72;;;18.36;49.84
12785;BME280;6456;42.680;23.260;2022-07-18T03:58:49;95342.88;;;18.24;49.73
12785;BME280;6456;42.680;23.260;2022-07-18T04:01:16;95390.06;;;18.56;48.23
12785;BME280;6456;42.680;23.260;2022-07-18T04:03:43;95369.25;;;18.53;48.41
12785;BME280;6456;42.680;23.260;2022-07-18T04:06:10;95315.69;;;18.22;48.59
12785;BME280;6456;42.680;23.260;2022-07-18T04:08:37;95371.66;;;18.55;47.92
12785;BME280;6456;42.680;23.260;2022-07-18T04:11:04;95381.59;;;18.60;48.13
12785;BME280;6456;42.680;23.260;2022-07-18T04:13:32;95357.69;;;18.48;46.66
12785;BME280;6456;42.680;23.260;2022-07-18T04:15:59;95380.72;;;18.71;48.21
12785;BME280;6456;42.680;23.260;2022-07-18T04:18:25;95331.75;;;18.43;46.56
12785;BME280;6456;42.680;23.260;2022-07-18T04:20:52;95390.84;;;18.90;46.50
12785;BME280;6456;42.680;23.260;2022-07-18T04:23:19;95389.56;;;18.93;46.32
12785;BME280;6456;42.680;23.260;2022-07-18T04:25:46;95389.81;;;18.91;47.10
12785;BME280;6456;42.680;23.260;2022-07-18T04:28:13;95351.97;;;18.56;46.21
12785;BME280;6456;42.680;23.260;2022-07-18T04:30:43;95398.94;;;18.95;46.83
12785;BME280;6456;42.680;23.260;2022-07-18T04:33:10;95371.16;;;18.91;46.93
12785;BME280;6456;42.680;23.260;2022-07-18T04:35:37;95394.63;;;19.11;47.84
12785;BME280;6456;42.680;23.260;2022-07-18T04:38:06;95400.19;;;19.09;49.16
12785;BME280;6456;42.680;23.260;2022-07-18T04:40:33;95379.31;;;19.06;49.24
12785;BME280;6456;42.680;23.260;2022-07-18T04:42:59;95353.88;;;18.99;47.54
12785;BME280;6456;42.680;23.260;2022-07-18T04:45:26;95363.16;;;19.13;48.57
12785;BME280;6456;42.680;23.260;2022-07-18T04:47:59;95310.09;;;18.73;45.58
12785;BME280;6456;42.680;23.260;2022-07-18T04:50:26;95318.84;;;18.90;45.12
12785;BME280;6456;42.680;23.260;2022-07-18T04:52:55;95372.88;;;19.24;41.51
12785;BME280;6456;42.680;23.260;2022-07-18T04:55:23;95371.53;;;19.21;41.79
12785;BME280;6456;42.680;23.260;2022-07-18T04:57:51;95380.72;;;19.31;43.66
12785;BME280;6456;42.680;23.260;2022-07-18T05:00:20;95338.47;;;19.01;44.50
12785;BME280;6456;42.680;23.260;2022-07-18T05:02:48;95384.69;;;19.28;44.40
12785;BME280;6456;42.680;23.260;2022-07-18T05:05:19;95379.25;;;19.40;41.64
12785;BME280;6456;42.680;23.260;2022-07-18T05:07:46;95382.47;;;19.42;42.46
12785;BME280;6456;42.680;23.260;2022-07-18T05:10:16;95387.66;;;19.48;42.05
12785;BME280;6456;42.680;23.260;2022-07-18T05:12:44;95380.88;;;19.41;41.42
12785;BME280;6456;42.680;23.260;2022-07-18T05:15:13;95307.19;;;18.96;40.99
12785;BME280;6456;42.680;23.260;2022-07-18T05:17:41;95366.41;;;19.37;41.65
12785;BME280;6456;42.680;23.260;2022-07-18T05:20:10;95377.00;;;19.32;41.11
12785;BME280;6456;42.680;23.260;2022-07-18T05:22:39;95283.31;;;18.85;40.25
12785;BME280;6456;42.680;23.260;2022-07-18T05:25:10;95377.19;;;19.47;40.96
12785;BME280;6456;42.680;23.260;2022-07-18T05:27:37;95386.41;;;19.56;41.29
12785;BME280;6456;42.680;23.260;2022-07-18T05:30:06;95370.00;;;19.47;42.07
12785;BME280;6456;42.680;23.260;2022-07-18T05:32:34;95383.84;;;19.44;41.99
12785;BME280;6456;42.680;23.260;2022-07-18T05:35:02;95385.72;;;19.44;42.98
12785;BME280;6456;42.680;23.260;2022-07-18T05:37:29;95347.50;;;19.38;41.32
12785;BME280;6456;42.680;23.260;2022-07-18T05:39:57;95372.56;;;19.37;42.19
12785;BME280;6456;42.680;23.260;2022-07-18T05:42:24;95397.09;;;19.56;43.21
12785;BME280;6456;42.680;23.260;2022-07-18T05:44:51;95341.63;;;19.19;42.26
12785;BME280;6456;42.680;23.260;2022-07-18T05:47:18;95372.56;;;19.37;41.99
12785;BME280;6456;42.680;23.260;2022-07-18T05:49:45;95395.53;;;19.38;41.63
12785;BME280;6456;42.680;23.260;2022-07-18T05:52:12;95383.41;;;19.31;41.77
12785;BME280;6456;42.680;23.260;2022-07-18T05:54:39;95395.72;;;19.53;42.01
12785;BME280;6456;42.680;23.260;2022-07-18T05:57:07;95390.38;;;19.53;41.07
12785;BME280;6456;42.680;23.260;2022-07-18T05:59:34;95397.03;;;19.51;41.33
12785;BME280;6456;42.680;23.260;2022-07-18T06:02:01;95396.81;;;19.57;41.98
12785;BME280;6456;42.680;23.260;2022-07-18T06:04:28;95389.06;;;19.56;41.71
12785;BME280;6456;42.680;23.260;2022-07-18T06:06:55;95330.34;;;19.12;40.49
12785;BME280;6456;42.680;23.260;2022-07-18T06:09:22;95397.63;;;19.58;41.15
12785;BME280;6456;42.680;23.260;2022-07-18T06:11:49;95333.63;;;19.19;40.16
12785;BME280;6456;42.680;23.260;2022-07-18T06:14:17;95325.63;;;19.19;39.41
12785;BME280;6456;42.680;23.260;2022-07-18T06:16:44;95367.59;;;19.46;39.05
12785;BME280;6456;42.680;23.260;2022-07-18T06:19:11;95369.03;;;19.53;37.42
12785;BME280;6456;42.680;23.260;2022-07-18T06:21:38;95391.28;;;19.86;38.23
12785;BME280;6456;42.680;23.260;2022-07-18T06:24:06;95379.34;;;19.93;38.38
12785;BME280;6456;42.680;23.260;2022-07-18T06:26:32;95397.63;;;20.06;36.64
12785;BME280;6456;42.680;23.260;2022-07-18T06:28:59;95389.66;;;20.11;36.76
12785;BME280;6456;42.680;23.260;2022-07-18T06:31:27;95392.13;;;20.18;37.26
12785;BME280;6456;42.680;23.260;2022-07-18T06:33:54;95366.22;;;20.18;36.87
12785;BME280;6456;42.680;23.260;2022-07-18T06:36:21;95375.91;;;20.24;37.23
12785;BME280;6456;42.680;23.260;2022-07-18T06:38:49;95380.06;;;20.42;36.95
12785;BME280;6456;42.680;23.260;2022-07-18T06:41:16;95367.50;;;20.42;36.54
12785;BME280;6456;42.680;23.260;2022-07-18T06:43:43;95358.47;;;20.49;36.17
12785;BME280;6456;42.680;23.260;2022-07-18T06:46:11;95376.78;;;20.67;35.70
12785;BME280;6456;42.680;23.260;2022-07-18T06:48:39;95374.72;;;20.74;36.70
12785;BME280;6456;42.680;23.260;2022-07-18T06:51:06;95362.69;;;20.76;35.54
12785;BME280;6456;42.680;23.260;2022-07-18T06:53:34;95370.00;;;20.91;34.68
12785;BME280;6456;42.680;23.260;2022-07-18T06:56:01;95374.00;;;20.88;35.30
12785;BME280;6456;42.680;23.260;2022-07-18T06:58:28;95369.78;;;20.97;35.53
12785;BME280;6456;42.680;23.260;2022-07-18T07:00:57;95375.94;;;20.98;33.09
12785;BME280;6456;42.680;23.260;2022-07-18T07:03:24;95307.25;;;20.62;33.86
12785;BME280;6456;42.680;23.260;2022-07-18T07:05:52;95279.00;;;20.34;33.62
12785;BME280;6456;42.680;23.260;2022-07-18T07:08:19;95309.38;;;20.65;35.35
12785;BME280;6456;42.680;23.260;2022-07-18T07:10:46;95311.53;;;20.68;34.44
12785;BME280;6456;42.680;23.260;2022-07-18T07:13:13;95299.22;;;20.67;35.76
12785;BME280;6456;42.680;23.260;2022-07-18T07:15:40;95366.41;;;21.12;34.75
12785;BME280;6456;42.680;23.260;2022-07-18T07:18:08;95359.19;;;21.13;34.36
12785;BME280;6456;42.680;23.260;2022-07-18T07:20:35;95362.69;;;21.18;33.31
12785;BME280;6456;42.680;23.260;2022-07-18T07:23:03;95353.03;;;21.17;34.25
12785;BME280;6456;42.680;23.260;2022-07-18T07:25:33;95362.41;;;21.20;34.71
12785;BME280;6456;42.680;23.260;2022-07-18T07:28:00;95351.75;;;21.30;34.25
12785;BME280;6456;42.680;23.260;2022-07-18T07:30:27;95353.66;;;21.29;34.19
12785;BME280;6456;42.680;23.260;2022-07-18T07:32:54;95350.38;;;21.22;32.74
12785;BME280;6456;42.680;23.260;2022-07-18T07:35:21;95364.66;;;21.38;32.01
12785;BME280;6456;42.680;23.260;2022-07-18T07:37:50;95354.50;;;21.45;30.88
12785;BME280;6456;42.680;23.260;2022-07-18T07:40:18;95357.47;;;21.48;31.03
12785;BME280;6456;42.680;23.260;2022-07-18T07:42:46;95350.72;;;21.31;30.71
12785;BME280;6456;42.680;23.260;2022-07-18T07:45:14;95350.72;;;21.36;31.05
12785;BME280;6456;42.680;23.260;2022-07-18T07:47:41;95341.38;;;21.43;32.03
12785;BME280;6456;42.680;23.260;2022-07-18T07:50:09;95341.69;;;21.47;31.35
12785;BME280;6456;42.680;23.260;2022-07-18T07:52:36;95361.25;;;21.57;32.92
12785;BME280;6456;42.680;23.260;2022-07-18T07:55:05;95360.69;;;21.50;31.05
12785;BME280;6456;42.680;23.260;2022-07-18T07:57:33;95354.25;;;21.46;30.10
12785;BME280;6456;42.680;23.260;2022-07-18T08:00:04;95371.47;;;21.65;30.67
12785;BME280;6456;42.680;23.260;2022-07-18T08:02:32;95314.06;;;21.41;30.16
12785;BME280;6456;42.680;23.260;2022-07-18T08:04:59;95353.00;;;21.69;28.59
12785;BME280;6456;42.680;23.260;2022-07-18T08:07:26;95331.81;;;21.67;28.90
12785;BME280;6456;42.680;23.260;2022-07-18T08:09:52;95364.06;;;22.03;29.67
12785;BME280;6456;42.680;23.260;2022-07-18T08:12:19;95367.84;;;22.02;30.62
12785;BME280;6456;42.680;23.260;2022-07-18T08:14:48;95359.00;;;22.01;30.48
12785;BME280;6456;42.680;23.260;2022-07-18T08:17:16;95356.56;;;22.05;28.24
12785;BME280;6456;42.680;23.260;2022-07-18T08:19:43;95359.81;;;22.07;28.08
12785;BME280;6456;42.680;23.260;2022-07-18T08:22:10;95345.84;;;22.10;28.75
12785;BME280;6456;42.680;23.260;2022-07-18T08:24:37;95317.47;;;22.09;31.35
12785;BME280;6456;42.680;23.260;2022-07-18T08:27:04;95316.38;;;22.15;29.10
12785;BME280;6456;42.680;23.260;2022-07-18T08:29:31;95341.59;;;22.24;27.84
12785;BME280;6456;42.680;23.260;2022-07-18T08:31:59;95353.38;;;22.28;28.75
12785;BME280;6456;42.680;23.260;2022-07-18T08:34:26;95359.28;;;22.35;28.46
12785;BME280;6456;42.680;23.260;2022-07-18T08:36:53;95353.66;;;22.37;28.92
12785;BME280;6456;42.680;23.260;2022-07-18T08:39:20;95355.78;;;22.40;28.20
12785;BME280;6456;42.680;23.260;2022-07-18T08:41:50;95353.38;;;22.28;28.79
12785;BME280;6456;42.680;23.260;2022-07-18T08:44:17;95355.00;;;22.39;28.97
12785;BME280;6456;42.680;23.260;2022-07-18T08:46:49;95357.69;;;22.44;26.92
12785;BME280;6456;42.680;23.260;2022-07-18T08:49:17;95359.56;;;22.49;27.72
12785;BME280;6456;42.680;23.260;2022-07-18T08:51:44;95354.47;;;22.62;27.38
12785;BME280;6456;42.680;23.260;2022-07-18T08:54:12;95321.47;;;22.52;28.74
12785;BME280;6456;42.680;23.260;2022-07-18T08:56:39;95341.03;;;22.82;28.43
12785;BME280;6456;42.680;23.260;2022-07-18T08:59:06;95344.53;;;22.88;27.17
12785;BME280;6456;42.680;23.260;2022-07-18T09:01:33;95318.53;;;22.73;27.97
12785;BME280;6456;42.680;23.260;2022-07-18T09:04:00;95348.50;;;23.06;28.13
12785;BME280;6456;42.680;23.260;2022-07-18T09:06:48;95352.81;;;23.12;27.79
12785;BME280;6456;42.680;23.260;2022-07-18T09:09:16;95281.25;;;22.52;27.37
12785;BME280;6456;42.680;23.260;2022-07-18T09:11:51;95347.97;;;23.14;28.94
12785;BME280;6456;42.680;23.260;2022-07-18T09:14:36;95345.25;;;23.24;28.78
12785;BME280;6456;42.680;23.260;2022-07-18T09:17:06;95340.94;;;23.23;29.77
12785;BME280;6456;42.680;23.260;2022-07-18T09:19:34;95354.88;;;23.30;30.57
12785;BME280;6456;42.680;23.260;2022-07-18T09:22:21;95345.69;;;23.51;31.46
12785;BME280;6456;42.680;23.260;2022-07-18T09:24:54;95334.97;;;23.51;30.45
12785;BME280;6456;42.680;23.260;2022-07-18T09:27:32;95355.84;;;23.64;29.60
12785;BME280;6456;42.680;23.260;2022-07-18T09:30:24;95348.00;;;23.73;29.49
12785;BME280;6456;42.680;23.260;2022-07-18T09:32:54;95343.34;;;23.88;30.83
12785;BME280;6456;42.680;23.260;2022-07-18T09:35:24;95353.81;;;23.95;30.45
12785;BME280;6456;42.680;23.260;2022-07-18T09:37:58;95341.16;;;23.95;30.36
12785;BME280;6456;42.680;23.260;2022-07-18T09:40:27;95291.59;;;23.68;30.80
12785;BME280;6456;42.680;23.260;2022-07-18T09:42:56;95344.91;;;23.99;31.12
12785;BME280;6456;42.680;23.260;2022-07-18T09:45:26;95339.22;;;24.06;30.78
12785;BME280;6456;42.680;23.260;2022-07-18T09:47:54;95334.13;;;24.04;31.31
12785;BME280;6456;42.680;23.260;2022-07-18T09:50:27;95323.09;;;24.11;31.28
12785;BME280;6456;42.680;23.260;2022-07-18T09:53:04;95334.56;;;24.21;30.01
12785;BME280;6456;42.680;23.260;2022-07-18T09:55:32;95340.22;;;24.20;30.09
12785;BME280;6456;42.680;23.260;2022-07-18T09:58:02;95329.69;;;24.29;30.19
12785;BME280;6456;42.680;23.260;2022-07-18T10:00:31;95315.63;;;24.37;29.91
12785;BME280;6456;42.680;23.260;2022-07-18T10:02:59;95334.25;;;24.62;30.85
12785;BME280;6456;42.680;23.260;2022-07-18T10:05:27;95322.59;;;24.71;31.31
12785;BME280;6456;42.680;23.260;2022-07-18T10:07:55;95325.22;;;24.76;29.73
12785;BME280;6456;42.680;23.260;2022-07-18T10:10:24;95322.94;;;24.65;29.94
12785;BME280;6456;42.680;23.260;2022-07-18T10:12:53;95326.94;;;24.67;28.96
12785;BME280;6456;42.680;23.260;2022-07-18T10:15:22;95321.81;;;24.66;28.77
12785;BME280;6456;42.680;23.260;2022-07-18T10:17:49;95319.69;;;24.63;30.17
12785;BME280;6456;42.680;23.260;2022-07-18T10:20:17;95318.28;;;24.70;29.69
12785;BME280;6456;42.680;23.260;2022-07-18T10:22:45;95271.94;;;24.50;29.93
12785;BME280;6456;42.680;23.260;2022-07-18T10:25:13;95308.72;;;24.88;30.37
12785;BME280;6456;42.680;23.260;2022-07-18T10:27:53;95282.47;;;24.75;31.61
12785;BME280;6456;42.680;23.260;2022-07-18T10:30:33;95302.91;;;25.05;31.13
12785;BME280;6456;42.680;23.260;2022-07-18T10:33:01;95297.63;;;25.18;31.45
12785;BME280;6456;42.680;23.260;2022-07-18T10:35:59;95291.59;;;25.26;30.82
12785;BME280;6456;42.680;23.260;2022-07-18T10:38:27;95272.88;;;25.16;30.48
12785;BME280;6456;42.680;23.260;2022-07-18T10:41:05;95296.41;;;25.29;29.59
12785;BME280;6456;42.680;23.260;2022-07-18T10:43:39;95289.66;;;25.32;29.86
12785;BME280;6456;42.680;23.260;2022-07-18T10:46:07;95271.44;;;25.00;30.04
12785;BME280;6456;42.680;23.260;2022-07-18T10:48:48;95275.31;;;25.13;30.07
12785;BME280;6456;42.680;23.260;2022-07-18T10:51:16;95279.63;;;25.14;30.83
12785;BME280;6456;42.680;23.260;2022-07-18T10:53:56;95265.53;;;24.98;30.29
12785;BME280;6456;42.680;23.260;2022-07-18T10:59:25;95283.53;;;25.26;31.75
12785;BME280;6456;42.680;23.260;2022-07-18T11:01:55;95278.50;;;25.38;30.90
12785;BME280;6456;42.680;23.260;2022-07-18T11:04:23;95226.19;;;25.02;31.16
12785;BME280;6456;42.680;23.260;2022-07-18T11:06:55;95261.97;;;25.26;31.18
12785;BME280;6456;42.680;23.260;2022-07-18T11:09:31;95276.25;;;25.27;29.91
12785;BME280;6456;42.680;23.260;2022-07-18T11:12:18;95238.03;;;25.01;30.22
12785;BME280;6456;42.680;23.260;2022-07-18T11:15:03;95270.63;;;25.23;29.68
12785;BME280;6456;42.680;23.260;2022-07-18T11:17:58;95239.72;;;24.97;30.55
12785;BME280;6456;42.680;23.260;2022-07-18T11:23:20;95263.84;;;25.26;30.05
12785;BME280;6456;42.680;23.260;2022-07-18T11:25:48;95256.13;;;25.19;29.59
12785;BME280;6456;42.680;23.260;2022-07-18T11:28:16;95267.41;;;25.21;29.83
12785;BME280;6456;42.680;23.260;2022-07-18T11:30:45;95263.59;;;25.27;29.87
12785;BME280;6456;42.680;23.260;2022-07-18T11:33:23;95248.63;;;25.16;30.20
12785;BME280;6456;42.680;23.260;2022-07-18T11:35:51;95252.88;;;25.22;30.53
12785;BME280;6456;42.680;23.260;2022-07-18T11:38:18;95258.28;;;25.41;30.86
12785;BME280;6456;42.680;23.260;2022-07-18T11:40:49;95254.16;;;25.48;30.32
12785;BME280;6456;42.680;23.260;2022-07-18T11:43:20;95255.19;;;25.53;29.75
12785;BME280;6456;42.680;23.260;2022-07-18T11:45:58;95258.47;;;25.50;28.99
12785;BME280;6456;42.680;23.260;2022-07-18T11:48:26;95230.81;;;25.39;29.85
12785;BME280;6456;42.680;23.260;2022-07-18T11:50:53;95221.06;;;25.43;30.40
12785;BME280;6456;42.680;23.260;2022-07-18T11:53:20;95194.50;;;25.36;30.59
12785;BME280;6456;42.680;23.260;2022-07-18T11:55:47;95237.63;;;25.74;29.87
12785;BME280;6456;42.680;23.260;2022-07-18T11:58:16;95229.84;;;25.72;28.49
12785;BME280;6456;42.680;23.260;2022-07-18T12:00:45;95242.28;;;25.87;28.53
12785;BME280;6456;42.680;23.260;2022-07-18T12:03:14;95217.31;;;25.81;29.60
12785;BME280;6456;42.680;23.260;2022-07-18T12:05:45;95233.56;;;25.95;30.28
12785;BME280;6456;42.680;23.260;2022-07-18T12:08:31;95219.09;;;26.04;30.69
12785;BME280;6456;42.680;23.260;2022-07-18T12:11:06;95233.75;;;26.17;30.21
12785;BME280;6456;42.680;23.260;2022-07-18T12:13:46;95223.88;;;26.26;29.23
12785;BME280;6456;42.680;23.260;2022-07-18T12:16:31;95208.72;;;26.30;29.42
12785;BME280;6456;42.680;23.260;2022-07-18T12:19:01;95214.25;;;26.52;29.07
12785;BME280;6456;42.680;23.260;2022-07-18T12:21:47;95182.94;;;26.38;29.70
12785;BME280;6456;42.680;23.260;2022-07-18T12:24:33;95215.16;;;26.61;28.86
12785;BME280;6456;42.680;23.260;2022-07-18T12:27:18;95214.16;;;26.57;28.69
12785;BME280;6456;42.680;23.260;2022-07-18T12:30:10;95205.66;;;26.50;28.53
12785;BME280;6456;42.680;23.260;2022-07-18T12:32:48;95222.44;;;26.61;28.99
12785;BME280;6456;42.680;23.260;2022-07-18T12:35:20;95220.56;;;26.61;29.24
12785;BME280;6456;42.680;23.260;2022-07-18T12:37:55;95216.69;;;26.67;30.17
12785;BME280;6456;42.680;23.260;2022-07-18T12:40:23;95219.56;;;26.57;29.21
12785;BME280;6456;42.680;23.260;2022-07-18T12:43:01;95209.66;;;26.66;29.05
12785;BME280;6456;42.680;23.260;2022-07-18T12:45:29;95188.25;;;26.56;30.51
12785;BME280;6456;42.680;23.260;2022-07-18T12:47:55;95206.59;;;26.87;28.99
12785;BME280;6456;42.680;23.260;2022-07-18T12:50:24;95206.13;;;26.85;29.56
12785;BME280;6456;42.680;23.260;2022-07-18T12:52:50;95211.78;;;26.83;29.84
12785;BME280;6456;42.680;23.260;2022-07-18T12:55:17;95214.91;;;26.77;30.19
12785;BME280;6456;42.680;23.260;2022-07-18T12:57:45;95199.97;;;26.65;30.73
12785;BME280;6456;42.680;23.260;2022-07-18T13:00:12;95198.28;;;26.69;30.99
12785;BME280;6456;42.680;23.260;2022-07-18T13:02:40;95193.00;;;26.78;31.60
12785;BME280;6456;42.680;23.260;2022-07-18T13:05:08;95198.59;;;26.82;30.31
12785;BME280;6456;42.680;23.260;2022-07-18T13:07:36;95193.69;;;26.84;31.08
12785;BME280;6456;42.680;23.260;2022-07-18T13:10:04;95208.22;;;26.88;31.40
12785;BME280;6456;42.680;23.260;2022-07-18T13:12:32;95189.19;;;26.65;31.09
12785;BME280;6456;42.680;23.260;2022-07-18T13:14:59;95199.34;;;26.68;31.32